Time;durP1;ratioP1;P1;durP2;ratioP2;P2;SDS_P1;SDS_P2;PMS_P1;PMS_P2;Temp;Humidity;BMP_temperature;BMP_pressure;BME280_temperature;BME280_humidity;BME280_pressure;Samples;Min_cycle;Max_cycle;Signal;HPM_P1;HPM_P2
2022/04/02 00:01:05;;;;;;;4.22;2.00;;;;;;;;;;5045034;28;20064;-67
2022/04/02 00:03:32;;;;;;;4.63;2.05;;;;;;;;;;5018298;28;20057;-67
2022/04/02 00:05:58;;;;;;;3.25;2.10;;;;;;;;;;5026368;28;20111;-67
2022/04/02 00:08:25;;;;;;;4.70;2.00;;;;;;;;;;5020922;28;20411;-67
2022/04/02 00:10:52;;;;;;;4.75;1.88;;;;;;;;;;5029116;28;20454;-67
2022/04/02 00:13:18;;;;;;;6.45;1.90;;;;;;;;;;5021465;28;20693;-67
2022/04/02 00:15:44;;;;;;;3.30;1.80;;;;;;;;;;5022195;28;20049;-67
2022/04/02 00:18:11;;;;;;;4.18;1.67;;;;;;;;;;5031824;28;20783;-67
2022/04/02 00:20:38;;;;;;;3.22;2.00;;;;;;;;;;5037377;28;20049;-67
2022/04/02 00:25:49;;;;;;;3.05;1.77;;;;;;;;;;5020926;28;20403;-66
2022/04/02 00:28:15;;;;;;;4.38;1.70;;;;;;;;;;5024047;28;20046;-65
2022/04/02 00:30:41;;;;;;;3.88;1.80;;;;;;;;;;5027615;28;20052;-67
2022/04/02 00:33:08;;;;;;;2.75;1.52;;;;;;;;;;5043733;28;20056;-65
2022/04/02 00:35:34;;;;;;;5.40;2.40;;;;;;;;;;5045310;28;20076;-65
2022/04/02 00:38:01;;;;;;;3.97;2.05;;;;;;;;;;5036409;28;20049;-67
2022/04/02 00:40:28;;;;;;;4.43;1.70;;;;;;;;;;5035390;28;20060;-67
2022/04/02 00:42:54;;;;;;;5.13;1.70;;;;;;;;;;5033203;28;20061;-67
2022/04/02 00:45:20;;;;;;;4.93;2.20;;;;;;;;;;5054676;28;20056;-67
2022/04/02 00:47:47;;;;;;;3.65;1.63;;;;;;;;;;5031930;28;20426;-67
2022/04/02 00:50:13;;;;;;;3.42;1.88;;;;;;;;;;5039594;28;20049;-67
2022/04/02 00:52:40;;;;;;;3.60;2.00;;;;;;;;;;5022765;28;20051;-68
2022/04/02 00:55:06;;;;;;;3.42;1.80;;;;;;;;;;5032800;28;20045;-67
2022/04/02 00:57:34;;;;;;;5.15;1.88;;;;;;;;;;5035363;28;20052;-65
2022/04/02 01:00:00;;;;;;;2.75;1.85;;;;;;;;;;5019719;28;20054;-67
2022/04/02 01:02:27;;;;;;;4.38;2.00;;;;;;;;;;5028284;28;20670;-67
2022/04/02 01:04:54;;;;;;;4.47;1.88;;;;;;;;;;5022974;28;20521;-67
2022/04/02 01:07:21;;;;;;;3.47;1.98;;;;;;;;;;5026391;28;20052;-67
2022/04/02 01:09:47;;;;;;;4.10;1.77;;;;;;;;;;5028269;28;20439;-67
2022/04/02 01:12:14;;;;;;;3.10;1.70;;;;;;;;;;5019859;28;20057;-67
2022/04/02 01:14:40;;;;;;;6.05;2.17;;;;;;;;;;5027500;28;20069;-68
2022/04/02 01:17:06;;;;;;;4.13;2.35;;;;;;;;;;5019618;28;20060;-67
2022/04/02 01:19:33;;;;;;;4.05;1.90;;;;;;;;;;5027272;28;20045;-67
2022/04/02 01:21:59;;;;;;;2.78;1.83;;;;;;;;;;5017844;28;20760;-67
2022/04/02 01:24:26;;;;;;;4.13;1.90;;;;;;;;;;5026399;28;20045;-67
2022/04/02 01:26:52;;;;;;;3.85;1.88;;;;;;;;;;5034164;28;20049;-67
2022/04/02 01:29:18;;;;;;;5.93;2.08;;;;;;;;;;5028083;28;20053;-67
2022/04/02 01:31:45;;;;;;;2.95;1.77;;;;;;;;;;5051468;28;20078;-66
2022/04/02 01:34:11;;;;;;;4.53;1.98;;;;;;;;;;5021450;28;20313;-66
2022/04/02 01:36:38;;;;;;;4.85;2.10;;;;;;;;;;5034168;28;20052;-66
2022/04/02 01:39:04;;;;;;;3.30;1.73;;;;;;;;;;5034261;28;20053;-66
2022/04/02 01:41:30;;;;;;;5.72;2.10;;;;;;;;;;5040181;28;20092;-66
2022/04/02 01:43:57;;;;;;;4.05;1.95;;;;;;;;;;5030183;28;20773;-67
2022/04/02 01:46:23;;;;;;;5.78;1.88;;;;;;;;;;5020323;28;20053;-67
2022/04/02 01:48:49;;;;;;;4.25;2.22;;;;;;;;;;5028872;28;20141;-67
2022/04/02 01:51:16;;;;;;;4.95;1.92;;;;;;;;;;5015543;28;20048;-67
2022/04/02 01:53:42;;;;;;;3.75;2.10;;;;;;;;;;5043006;28;20056;-67
2022/04/02 01:56:09;;;;;;;3.85;1.80;;;;;;;;;;5020517;28;20115;-67
2022/04/02 01:58:35;;;;;;;4.10;2.20;;;;;;;;;;5030743;28;20056;-66
2022/04/02 02:01:02;;;;;;;4.88;2.10;;;;;;;;;;5030769;28;20729;-66
2022/04/02 02:03:28;;;;;;;3.05;1.85;;;;;;;;;;5030487;28;20049;-66
2022/04/02 02:05:55;;;;;;;3.38;1.48;;;;;;;;;;5020494;28;20501;-66
2022/04/02 02:08:21;;;;;;;2.88;1.77;;;;;;;;;;5019667;28;20057;-66
2022/04/02 02:10:48;;;;;;;3.92;1.83;;;;;;;;;;5032768;28;20505;-66
2022/04/02 02:13:14;;;;;;;4.53;1.73;;;;;;;;;;5036569;28;20774;-66
2022/04/02 02:15:41;;;;;;;5.88;1.98;;;;;;;;;;5026947;28;20050;-66
2022/04/02 02:18:08;;;;;;;4.53;2.10;;;;;;;;;;5028797;28;20059;-66
2022/04/02 02:20:34;;;;;;;2.55;1.30;;;;;;;;;;5035036;28;20052;-66
2022/04/02 02:23:00;;;;;;;4.50;2.03;;;;;;;;;;5028123;28;20764;-66
2022/04/02 02:25:26;;;;;;;2.90;1.70;;;;;;;;;;5027978;28;20513;-66
2022/04/02 02:27:53;;;;;;;3.35;1.70;;;;;;;;;;5044730;28;20418;-66
2022/04/02 02:30:19;;;;;;;5.38;1.63;;;;;;;;;;5028096;28;20052;-66
2022/04/02 02:32:45;;;;;;;4.63;1.88;;;;;;;;;;5046223;28;20056;-66
2022/04/02 02:38:01;;;;;;;3.03;1.83;;;;;;;;;;5028712;28;20521;-66
2022/04/02 02:40:28;;;;;;;3.58;2.00;;;;;;;;;;5030896;28;20053;-66
2022/04/02 02:42:54;;;;;;;7.28;2.00;;;;;;;;;;5035700;28;20057;-66
2022/04/02 02:45:20;;;;;;;6.18;1.90;;;;;;;;;;5041619;28;20637;-66
2022/04/02 02:47:47;;;;;;;3.25;2.00;;;;;;;;;;5018225;28;20095;-66
2022/04/02 02:50:13;;;;;;;2.95;1.80;;;;;;;;;;5030970;28;20045;-66
2022/04/02 02:52:39;;;;;;;4.07;1.95;;;;;;;;;;5048187;28;20052;-66
2022/04/02 02:55:06;;;;;;;3.85;1.80;;;;;;;;;;5025141;28;20045;-66
2022/04/02 02:57:39;;;;;;;4.45;1.73;;;;;;;;;;5029482;28;20148;-66
2022/04/02 03:00:07;;;;;;;4.03;2.15;;;;;;;;;;5016129;28;20513;-66
2022/04/02 03:02:34;;;;;;;4.20;1.83;;;;;;;;;;5032617;28;20064;-66
2022/04/02 03:05:00;;;;;;;3.95;1.77;;;;;;;;;;5022896;28;20050;-65
2022/04/02 03:07:28;;;;;;;3.15;1.60;;;;;;;;;;5032186;28;20524;-65
2022/04/02 03:09:57;;;;;;;3.03;1.60;;;;;;;;;;5029515;28;20056;-66
2022/04/02 03:12:23;;;;;;;3.60;1.65;;;;;;;;;;5017923;28;20582;-66
2022/04/02 03:14:50;;;;;;;3.42;1.90;;;;;;;;;;5027165;28;20157;-66
2022/04/02 03:17:16;;;;;;;3.75;1.83;;;;;;;;;;5027197;28;20054;-66
2022/04/02 03:19:42;;;;;;;7.88;2.08;;;;;;;;;;5039866;28;20049;-66
2022/04/02 03:22:09;;;;;;;2.80;1.67;;;;;;;;;;5025494;28;20046;-66
2022/04/02 03:24:35;;;;;;;3.60;1.90;;;;;;;;;;5032517;28;20068;-66
2022/04/02 03:27:02;;;;;;;4.15;2.17;;;;;;;;;;5022340;28;20688;-66
2022/04/02 03:29:28;;;;;;;4.30;1.80;;;;;;;;;;5023115;28;20418;-66
2022/04/02 03:31:54;;;;;;;4.38;2.22;;;;;;;;;;5043135;28;20044;-66
2022/04/02 03:34:21;;;;;;;4.53;2.33;;;;;;;;;;5040936;28;20122;-66
2022/04/02 03:36:47;;;;;;;3.78;1.85;;;;;;;;;;5043008;28;20048;-66
2022/04/02 03:39:14;;;;;;;4.82;1.83;;;;;;;;;;5032741;28;20182;-66
2022/04/02 03:41:40;;;;;;;3.17;1.73;;;;;;;;;;5036567;28;20048;-66
2022/04/02 03:44:06;;;;;;;3.85;1.60;;;;;;;;;;5037099;28;20071;-66
2022/04/02 03:49:17;;;;;;;3.60;1.92;;;;;;;;;;5044176;28;20056;-66
2022/04/02 03:51:44;;;;;;;3.20;1.85;;;;;;;;;;5040879;28;20040;-66
2022/04/02 03:54:10;;;;;;;3.30;2.00;;;;;;;;;;5032821;28;20057;-66
2022/04/02 03:56:36;;;;;;;5.07;1.92;;;;;;;;;;5017053;28;20041;-67
2022/04/02 03:59:03;;;;;;;5.07;2.08;;;;;;;;;;5040673;28;20060;-67
2022/04/02 04:01:29;;;;;;;3.90;1.80;;;;;;;;;;5028375;28;20049;-66
2022/04/02 04:03:56;;;;;;;4.65;1.90;;;;;;;;;;5031168;28;20342;-67
2022/04/02 04:06:22;;;;;;;4.15;1.80;;;;;;;;;;5011587;28;20806;-67
2022/04/02 04:08:48;;;;;;;6.97;2.10;;;;;;;;;;5017020;28;20049;-67
2022/04/02 04:11:16;;;;;;;4.68;2.15;;;;;;;;;;5025538;28;20700;-67
2022/04/02 04:13:42;;;;;;;3.72;2.00;;;;;;;;;;5021930;28;20498;-66
2022/04/02 04:16:09;;;;;;;3.67;1.90;;;;;;;;;;5029894;28;20056;-66
2022/04/02 04:18:35;;;;;;;4.90;2.08;;;;;;;;;;5028047;28;20076;-66
2022/04/02 04:21:02;;;;;;;2.88;1.90;;;;;;;;;;5019327;28;20049;-66
2022/04/02 04:23:29;;;;;;;6.40;1.92;;;;;;;;;;5028423;28;20087;-66
2022/04/02 04:25:55;;;;;;;5.68;2.00;;;;;;;;;;5038224;28;20068;-67
2022/04/02 04:28:22;;;;;;;3.22;1.60;;;;;;;;;;5028481;28;20041;-66
2022/04/02 04:30:48;;;;;;;3.92;1.80;;;;;;;;;;5028217;28;20049;-66
2022/04/02 04:33:15;;;;;;;3.97;2.05;;;;;;;;;;5042848;28;20526;-67
2022/04/02 04:35:41;;;;;;;4.15;2.03;;;;;;;;;;5031925;28;20494;-65
2022/04/02 04:38:08;;;;;;;3.63;1.80;;;;;;;;;;5027732;28;20490;-65
2022/04/02 04:40:34;;;;;;;4.20;2.20;;;;;;;;;;5041598;28;20049;-65
2022/04/02 04:43:00;;;;;;;3.28;1.88;;;;;;;;;;5027226;28;20049;-66
2022/04/02 04:45:27;;;;;;;3.78;1.73;;;;;;;;;;5048971;28;20049;-65
2022/04/02 04:47:53;;;;;;;3.25;1.90;;;;;;;;;;5035944;28;20132;-65
2022/04/02 04:50:19;;;;;;;4.40;1.77;;;;;;;;;;5031368;28;20407;-65
2022/04/02 04:52:46;;;;;;;3.63;1.88;;;;;;;;;;5043791;28;20045;-67
2022/04/02 04:55:12;;;;;;;8.32;1.92;;;;;;;;;;5024548;28;20049;-67
2022/04/02 04:57:38;;;;;;;3.40;1.60;;;;;;;;;;5028488;28;20055;-67
2022/04/02 05:00:05;;;;;;;4.50;2.00;;;;;;;;;;5027519;28;20527;-65
2022/04/02 05:02:31;;;;;;;3.78;1.83;;;;;;;;;;5030560;28;20050;-65
2022/04/02 05:04:57;;;;;;;4.28;2.10;;;;;;;;;;5020660;28;20053;-65
2022/04/02 05:07:44;;;;;;;3.22;1.80;;;;;;;;;;5016979;28;20453;-65
2022/04/02 05:10:10;;;;;;;3.80;1.77;;;;;;;;;;5027509;28;20045;-65
2022/04/02 05:12:37;;;;;;;3.92;1.83;;;;;;;;;;5018709;28;20049;-66
2022/04/02 05:15:04;;;;;;;4.18;1.65;;;;;;;;;;5027342;28;20057;-66
2022/04/02 05:17:31;;;;;;;3.58;1.73;;;;;;;;;;5015267;28;20099;-66
2022/04/02 05:19:57;;;;;;;3.17;1.85;;;;;;;;;;5022059;28;20049;-66
2022/04/02 05:22:24;;;;;;;5.55;2.20;;;;;;;;;;5027179;28;20056;-65
2022/04/02 05:24:50;;;;;;;6.50;2.15;;;;;;;;;;5020743;28;20063;-67
2022/04/02 05:27:17;;;;;;;5.20;2.17;;;;;;;;;;5027793;28;20057;-66
2022/04/02 05:29:43;;;;;;;6.97;2.03;;;;;;;;;;5031266;28;20049;-65
2022/04/02 05:32:10;;;;;;;5.88;1.70;;;;;;;;;;5028098;28;20059;-65
2022/04/02 05:34:37;;;;;;;3.90;1.83;;;;;;;;;;5029416;28;20421;-65
2022/04/02 05:37:03;;;;;;;4.63;2.05;;;;;;;;;;5036067;28;20054;-65
2022/04/02 05:39:29;;;;;;;7.32;2.90;;;;;;;;;;5040700;28;20053;-66
2022/04/02 05:41:57;;;;;;;3.92;2.05;;;;;;;;;;5024279;28;20264;-65
2022/04/02 05:44:24;;;;;;;5.03;2.00;;;;;;;;;;5027182;28;20100;-65
2022/04/02 05:46:50;;;;;;;3.55;2.22;;;;;;;;;;5029897;28;20873;-65
2022/04/02 05:49:36;;;;;;;3.83;2.05;;;;;;;;;;5037811;28;20044;-65
2022/04/02 05:52:04;;;;;;;3.78;2.10;;;;;;;;;;5038760;28;20075;-66
2022/04/02 05:54:31;;;;;;;4.20;2.15;;;;;;;;;;5039263;28;20069;-65
2022/04/02 05:56:57;;;;;;;5.80;2.38;;;;;;;;;;5038294;28;20473;-65
2022/04/02 05:59:24;;;;;;;4.93;2.22;;;;;;;;;;5035008;28;20689;-66
2022/04/02 06:01:50;;;;;;;5.13;2.10;;;;;;;;;;5027612;28;20056;-66
2022/04/02 06:04:16;;;;;;;4.97;2.60;;;;;;;;;;5030515;28;20470;-66
2022/04/02 06:06:43;;;;;;;4.38;2.30;;;;;;;;;;5026746;28;20048;-66
2022/04/02 06:09:11;;;;;;;4.97;2.20;;;;;;;;;;5020513;28;20058;-66
2022/04/02 06:11:38;;;;;;;4.88;2.30;;;;;;;;;;5027344;28;20053;-65
2022/04/02 06:14:04;;;;;;;5.35;2.20;;;;;;;;;;5018145;28;20045;-65
2022/04/02 06:16:30;;;;;;;5.40;2.40;;;;;;;;;;5024184;28;20052;-65
2022/04/02 06:18:56;;;;;;;4.32;2.28;;;;;;;;;;5031060;28;20089;-66
2022/04/02 06:21:23;;;;;;;7.55;2.97;;;;;;;;;;5026794;28;20065;-65
2022/04/02 06:23:49;;;;;;;4.10;2.30;;;;;;;;;;5025930;28;20045;-66
2022/04/02 06:26:15;;;;;;;4.65;2.38;;;;;;;;;;5002302;28;20073;-65
2022/04/02 06:28:43;;;;;;;6.65;2.17;;;;;;;;;;5024203;28;20779;-65
2022/04/02 06:31:10;;;;;;;5.97;2.38;;;;;;;;;;5026089;28;20064;-65
2022/04/02 06:33:36;;;;;;;5.65;3.05;;;;;;;;;;5045416;28;20063;-65
2022/04/02 06:36:02;;;;;;;13.32;2.70;;;;;;;;;;5031723;28;20060;-65
2022/04/02 06:38:29;;;;;;;3.67;2.28;;;;;;;;;;5022005;28;20046;-65
2022/04/02 06:40:56;;;;;;;3.33;1.98;;;;;;;;;;5023739;28;20481;-65
2022/04/02 06:43:22;;;;;;;3.88;2.35;;;;;;;;;;5015877;28;20057;-65
2022/04/02 06:45:48;;;;;;;4.80;2.50;;;;;;;;;;5028484;28;20045;-66
2022/04/02 06:48:15;;;;;;;4.97;2.63;;;;;;;;;;5026064;28;20072;-65
2022/04/02 06:50:42;;;;;;;5.25;2.45;;;;;;;;;;5019223;28;20048;-65
2022/04/02 06:53:09;;;;;;;4.70;2.80;;;;;;;;;;5028575;28;20065;-66
2022/04/02 06:55:35;;;;;;;8.27;2.55;;;;;;;;;;5014332;28;20045;-65
2022/04/02 06:58:03;;;;;;;4.93;2.53;;;;;;;;;;5019294;28;20049;-65
2022/04/02 07:00:29;;;;;;;3.65;2.25;;;;;;;;;;5018579;28;20071;-65
2022/04/02 07:02:55;;;;;;;4.95;2.47;;;;;;;;;;5024853;28;20064;-65
2022/04/02 07:05:22;;;;;;;5.15;2.50;;;;;;;;;;5027503;28;20056;-65
2022/04/02 07:07:52;;;;;;;5.07;2.60;;;;;;;;;;5016709;28;20053;-65
2022/04/02 07:10:19;;;;;;;5.05;2.53;;;;;;;;;;5019500;28;20089;-65
2022/04/02 07:12:45;;;;;;;7.25;2.50;;;;;;;;;;5032168;28;20064;-65
2022/04/02 07:15:11;;;;;;;5.35;2.47;;;;;;;;;;5030030;28;20454;-65
2022/04/02 07:17:38;;;;;;;6.50;2.85;;;;;;;;;;5023048;28;20992;-65
2022/04/02 07:20:06;;;;;;;8.02;2.75;;;;;;;;;;5044222;28;20140;-65
2022/04/02 07:22:34;;;;;;;6.53;2.72;;;;;;;;;;5028969;28;20398;-65
2022/04/02 07:25:00;;;;;;;6.30;2.78;;;;;;;;;;5027789;28;20048;-65
2022/04/02 07:27:27;;;;;;;6.03;2.38;;;;;;;;;;5029131;28;20049;-65
2022/04/02 07:29:55;;;;;;;5.65;2.28;;;;;;;;;;5027998;28;20042;-66
2022/04/02 07:32:21;;;;;;;6.15;2.83;;;;;;;;;;5052134;28;20052;-65
2022/04/02 07:34:48;;;;;;;17.80;2.83;;;;;;;;;;5040411;28;20088;-65
2022/04/02 07:37:19;;;;;;;4.00;2.40;;;;;;;;;;5016748;28;20049;-65
2022/04/02 07:40:08;;;;;;;12.85;3.20;;;;;;;;;;5023924;28;20056;-66
2022/04/02 07:42:43;;;;;;;5.47;2.78;;;;;;;;;;5021455;28;20053;-66
2022/04/02 07:45:13;;;;;;;6.30;2.40;;;;;;;;;;5042492;28;20413;-65
2022/04/02 07:47:43;;;;;;;8.07;2.30;;;;;;;;;;5023421;28;20096;-65
2022/04/02 07:50:13;;;;;;;5.15;2.70;;;;;;;;;;5028646;28;20057;-66
2022/04/02 07:52:43;;;;;;;6.40;3.35;;;;;;;;;;5034817;28;20081;-65
2022/04/02 07:55:10;;;;;;;5.25;2.70;;;;;;;;;;5028827;28;20056;-66
2022/04/02 07:57:44;;;;;;;3.63;2.35;;;;;;;;;;5028964;28;20088;-65
2022/04/02 08:00:19;;;;;;;5.45;2.35;;;;;;;;;;5021365;28;20327;-66
2022/04/02 08:02:47;;;;;;;4.68;3.10;;;;;;;;;;5021716;28;20393;-66
2022/04/02 08:05:16;;;;;;;4.95;2.83;;;;;;;;;;5027294;28;20052;-67
2022/04/02 08:07:49;;;;;;;7.03;2.90;;;;;;;;;;5043670;28;20052;-66
2022/04/02 08:10:18;;;;;;;7.57;2.80;;;;;;;;;;5024507;28;20075;-66
2022/04/02 08:12:44;;;;;;;6.15;3.08;;;;;;;;;;5028252;28;20054;-66
2022/04/02 08:15:12;;;;;;;6.43;2.80;;;;;;;;;;5024544;28;20057;-66
2022/04/02 08:17:39;;;;;;;4.78;2.85;;;;;;;;;;5017912;28;20050;-66
2022/04/02 08:20:06;;;;;;;6.28;2.90;;;;;;;;;;5039373;28;20055;-65
2022/04/02 08:22:33;;;;;;;4.53;2.50;;;;;;;;;;5021517;28;20434;-66
2022/04/02 08:24:59;;;;;;;6.72;2.70;;;;;;;;;;5026549;28;20534;-66
2022/04/02 08:27:34;;;;;;;6.22;2.65;;;;;;;;;;5022474;28;20053;-67
2022/04/02 08:30:11;;;;;;;5.15;2.78;;;;;;;;;;5023167;28;20060;-65
2022/04/02 08:32:47;;;;;;;6.07;2.60;;;;;;;;;;5031880;28;20050;-66
2022/04/02 08:35:15;;;;;;;5.38;3.30;;;;;;;;;;5036931;28;20429;-65
2022/04/02 08:38:02;;;;;;;5.93;2.87;;;;;;;;;;5046713;28;20501;-65
2022/04/02 08:40:34;;;;;;;5.70;3.10;;;;;;;;;;5028920;28;20060;-65
2022/04/02 08:43:19;;;;;;;4.80;2.65;;;;;;;;;;5025583;28;20053;-66
2022/04/02 08:45:57;;;;;;;7.13;2.40;;;;;;;;;;5030189;28;20059;-66
2022/04/02 08:48:24;;;;;;;;;;;;;;;;;;5028280;28;20057;-66
2022/04/02 08:50:59;;;;;;;5.35;3.00;;;;;;;;;;5020383;28;20393;-66
2022/04/02 08:53:31;;;;;;;5.10;2.67;;;;;;;;;;5027887;28;20048;-66
2022/04/02 08:56:01;;;;;;;7.38;3.08;;;;;;;;;;5018631;28;20788;-66
2022/04/02 08:58:31;;;;;;;7.55;3.03;;;;;;;;;;5022798;28;20577;-66
2022/04/02 09:01:05;;;;;;;4.57;2.65;;;;;;;;;;5019636;28;20049;-66
2022/04/02 09:03:50;;;;;;;4.22;2.55;;;;;;;;;;5027267;28;20041;-66
2022/04/02 09:06:36;;;;;;;7.90;2.88;;;;;;;;;;5025909;28;20049;-67
2022/04/02 09:09:06;;;;;;;6.20;3.05;;;;;;;;;;5021219;28;20049;-66
2022/04/02 09:11:53;;;;;;;6.43;2.55;;;;;;;;;;5029457;28;20770;-66
2022/04/02 09:14:39;;;;;;;4.45;2.63;;;;;;;;;;5028732;28;20045;-66
2022/04/02 09:17:30;;;;;;;4.60;2.88;;;;;;;;;;5050668;28;20509;-66
2022/04/02 09:20:15;;;;;;;4.47;2.70;;;;;;;;;;5019789;28;20048;-67
2022/04/02 09:22:50;;;;;;;3.47;2.38;;;;;;;;;;5036189;28;20080;-67
2022/04/02 09:25:43;;;;;;;4.35;2.60;;;;;;;;;;5013306;28;20129;-66
2022/04/02 09:28:28;;;;;;;4.50;2.80;;;;;;;;;;5026296;28;20061;-67
2022/04/02 09:30:54;;;;;;;5.32;2.78;;;;;;;;;;5031071;28;20703;-66
2022/04/02 09:33:32;;;;;;;5.15;2.90;;;;;;;;;;5039417;28;20422;-67
2022/04/02 09:36:17;;;;;;;4.60;2.88;;;;;;;;;;5026174;28;20048;-66
2022/04/02 09:38:43;;;;;;;7.47;2.90;;;;;;;;;;5027371;28;20056;-66
2022/04/02 09:41:23;;;;;;;6.82;2.83;;;;;;;;;;5028868;28;20045;-66
2022/04/02 09:44:05;;;;;;;4.25;2.65;;;;;;;;;;5035784;28;20053;-66
2022/04/02 09:46:34;;;;;;;4.15;2.83;;;;;;;;;;5043655;28;20051;-66
2022/04/02 09:49:08;;;;;;;5.72;2.72;;;;;;;;;;5027039;28;20041;-67
2022/04/02 09:51:40;;;;;;;5.30;2.72;;;;;;;;;;5041780;28;20055;-67
2022/04/02 09:54:29;;;;;;;6.30;2.70;;;;;;;;;;5023905;28;20056;-67
2022/04/02 09:57:07;;;;;;;4.70;2.47;;;;;;;;;;5025994;28;20068;-66
2022/04/02 09:59:38;;;;;;;7.07;2.63;;;;;;;;;;5018831;28;20541;-67
2022/04/02 10:02:05;;;;;;;6.82;3.30;;;;;;;;;;5026499;28;20057;-66
2022/04/02 10:04:51;;;;;;;5.15;2.83;;;;;;;;;;5019439;28;20750;-67
2022/04/02 10:07:42;;;;;;;5.15;2.65;;;;;;;;;;5017534;28;20052;-67
2022/04/02 10:10:09;;;;;;;6.18;2.72;;;;;;;;;;5020069;28;20046;-66
2022/04/02 10:12:37;;;;;;;7.30;2.95;;;;;;;;;;5031564;28;20071;-66
2022/04/02 10:15:04;;;;;;;7.88;2.80;;;;;;;;;;5025913;28;20088;-67
2022/04/02 10:17:32;;;;;;;3.47;2.05;;;;;;;;;;5018421;28;20847;-67
2022/04/02 10:19:59;;;;;;;5.85;2.15;;;;;;;;;;5024663;28;20060;-66
2022/04/02 10:22:45;;;;;;;5.93;2.42;;;;;;;;;;5014986;28;20052;-66
2022/04/02 10:25:15;;;;;;;4.75;2.65;;;;;;;;;;5025477;28;20056;-66
2022/04/02 10:27:42;;;;;;;5.70;2.60;;;;;;;;;;5018768;28;20561;-66
2022/04/02 10:30:10;;;;;;;7.20;2.20;;;;;;;;;;5029590;28;20391;-66
2022/04/02 10:32:47;;;;;;;5.80;2.20;;;;;;;;;;5037093;28;20042;-67
2022/04/02 10:35:14;;;;;;;4.37;2.20;;;;;;;;;;5023453;28;20076;-67
2022/04/02 10:37:51;;;;;;;3.17;1.77;;;;;;;;;;5030395;28;20502;-66
2022/04/02 10:40:18;;;;;;;3.55;2.00;;;;;;;;;;5019085;28;20060;-67
2022/04/02 10:42:51;;;;;;;3.30;1.98;;;;;;;;;;5026044;28;20067;-66
2022/04/02 10:45:19;;;;;;;6.57;2.10;;;;;;;;;;5031133;28;20061;-65
2022/04/02 10:47:46;;;;;;;3.97;1.70;;;;;;;;;;5023745;28;20049;-65
2022/04/02 10:50:16;;;;;;;2.67;1.70;;;;;;;;;;5019099;28;20057;-66
2022/04/02 10:52:49;;;;;;;2.72;1.55;;;;;;;;;;5040423;28;20085;-66
2022/04/02 10:55:17;;;;;;;5.07;1.77;;;;;;;;;;5029980;28;20057;-66
2022/04/02 10:57:44;;;;;;;15.13;2.40;;;;;;;;;;5022718;28;20053;-66
2022/04/02 11:00:11;;;;;;;3.40;2.00;;;;;;;;;;5030084;28;20084;-66
2022/04/02 11:02:41;;;;;;;5.88;2.03;;;;;;;;;;5017885;28;20466;-66
2022/04/02 11:05:08;;;;;;;2.55;1.55;;;;;;;;;;5029130;28;20053;-65
2022/04/02 11:07:44;;;;;;;4.30;1.38;;;;;;;;;;5037564;28;20053;-66
2022/04/02 11:10:17;;;;;;;3.92;1.63;;;;;;;;;;5045159;28;20088;-65
2022/04/02 11:12:44;;;;;;;3.65;1.40;;;;;;;;;;5030270;28;20675;-66
2022/04/02 11:15:17;;;;;;;2.05;1.13;;;;;;;;;;5022877;28;20045;-65
2022/04/02 11:17:46;;;;;;;3.20;1.40;;;;;;;;;;5029249;28;20403;-66
2022/04/02 11:20:20;;;;;;;4.35;1.50;;;;;;;;;;5025446;28;20056;-66
2022/04/02 11:22:57;;;;;;;3.85;1.50;;;;;;;;;;5030099;28;20103;-66
2022/04/02 11:25:25;;;;;;;2.45;1.40;;;;;;;;;;5024487;28;20045;-66
2022/04/02 11:27:54;;;;;;;2.93;1.47;;;;;;;;;;5029391;28;20056;-65
2022/04/02 11:30:21;;;;;;;2.40;1.45;;;;;;;;;;5021273;28;20045;-66
2022/04/02 11:32:48;;;;;;;5.38;1.40;;;;;;;;;;5031414;28;20048;-66
2022/04/02 11:35:16;;;;;;;4.25;1.92;;;;;;;;;;5041545;28;20056;-67
2022/04/02 11:38:00;;;;;;;4.28;1.77;;;;;;;;;;5027662;28;20040;-66
2022/04/02 11:40:28;;;;;;;3.30;1.55;;;;;;;;;;5032066;28;20040;-66
2022/04/02 11:42:55;;;;;;;3.15;1.67;;;;;;;;;;5022073;28;20063;-66
2022/04/02 11:45:23;;;;;;;;;;;;;;;;;;5031085;28;20048;-66
2022/04/02 11:47:50;;;;;;;1.98;1.30;;;;;;;;;;5036519;28;19921;-66
2022/04/02 11:50:24;;;;;;;2.33;1.50;;;;;;;;;;5039241;28;20526;-67
2022/04/02 11:52:50;;;;;;;2.53;1.40;;;;;;;;;;5038836;28;20057;-66
2022/04/02 11:55:16;;;;;;;1.95;1.33;;;;;;;;;;5025908;28;20612;-69
2022/04/02 11:58:01;;;;;;;4.20;1.60;;;;;;;;;;5021646;28;20271;-65
2022/04/02 12:00:27;;;;;;;2.33;1.45;;;;;;;;;;5020809;28;20496;-66
2022/04/02 12:02:53;;;;;;;3.30;1.70;;;;;;;;;;5029111;28;20060;-67
2022/04/02 12:05:20;;;;;;;2.75;1.48;;;;;;;;;;5030118;28;20110;-66
2022/04/02 12:07:48;;;;;;;3.35;1.70;;;;;;;;;;5027041;28;20053;-65
2022/04/02 12:10:42;;;;;;;2.28;1.42;;;;;;;;;;5015669;28;20049;-65
2022/04/02 12:13:10;;;;;;;3.63;1.63;;;;;;;;;;5037647;28;20041;-65
2022/04/02 12:15:37;;;;;;;4.95;1.55;;;;;;;;;;5038989;28;20103;-66
2022/04/02 12:18:06;;;;;;;2.75;1.50;;;;;;;;;;5025674;28;20045;-66
2022/04/02 12:20:37;;;;;;;3.42;1.40;;;;;;;;;;5037436;28;20402;-65
2022/04/02 12:23:07;;;;;;;3.45;1.67;;;;;;;;;;5021291;28;20065;-65
2022/04/02 12:25:34;;;;;;;5.95;2.28;;;;;;;;;;5021144;28;20064;-66
2022/04/02 12:28:08;;;;;;;2.30;1.50;;;;;;;;;;5020495;28;20054;-67
2022/04/02 12:30:35;;;;;;;3.25;1.70;;;;;;;;;;5041926;28;20053;-65
2022/04/02 12:33:08;;;;;;;4.10;1.67;;;;;;;;;;5049530;28;20041;-65
2022/04/02 12:35:35;;;;;;;2.28;1.35;;;;;;;;;;5027131;28;20046;-65
2022/04/02 12:38:03;;;;;;;4.43;1.95;;;;;;;;;;5027244;28;20052;-67
2022/04/02 12:40:30;;;;;;;3.95;1.58;;;;;;;;;;5018173;28;20530;-66
2022/04/02 12:43:01;;;;;;;3.85;1.83;;;;;;;;;;5029955;28;20061;-66
2022/04/02 12:45:28;;;;;;;4.90;1.98;;;;;;;;;;5025694;28;20052;-66
2022/04/02 12:48:05;;;;;;;3.17;1.98;;;;;;;;;;5029612;28;20495;-66
2022/04/02 12:50:32;;;;;;;3.35;1.77;;;;;;;;;;5027191;28;20064;-65
2022/04/02 12:52:59;;;;;;;4.25;1.70;;;;;;;;;;5036764;28;20053;-65
2022/04/02 12:55:27;;;;;;;4.18;1.90;;;;;;;;;;5024987;28;20053;-66
2022/04/02 12:57:59;;;;;;;4.35;1.80;;;;;;;;;;5027646;28;20056;-66
2022/04/02 13:00:46;;;;;;;2.17;1.73;;;;;;;;;;5036430;28;20399;-66
2022/04/02 13:03:43;;;;;;;2.63;1.40;;;;;;;;;;5030995;28;20052;-66
2022/04/02 13:06:18;;;;;;;3.85;1.50;;;;;;;;;;5021515;28;20060;-66
2022/04/02 13:08:52;;;;;;;4.05;1.77;;;;;;;;;;5021447;28;20061;-66
2022/04/02 13:11:29;;;;;;;3.30;1.50;;;;;;;;;;5022553;28;20057;-66
2022/04/02 13:14:02;;;;;;;2.50;1.40;;;;;;;;;;5015901;28;20045;-66
2022/04/02 13:16:37;;;;;;;2.50;1.42;;;;;;;;;;5021998;28;20054;-66
2022/04/02 13:21:49;;;;;;;5.30;1.70;;;;;;;;;;5015458;28;20092;-67
2022/04/02 13:24:16;;;;;;;3.90;1.42;;;;;;;;;;5021819;28;20054;-65
2022/04/02 13:26:55;;;;;;;5.03;2.03;;;;;;;;;;5014397;28;20060;-65
2022/04/02 13:29:34;;;;;;;2.20;1.55;;;;;;;;;;5027630;28;20049;-65
2022/04/02 13:32:19;;;;;;;3.72;1.73;;;;;;;;;;5039500;28;20059;-65
2022/04/02 13:35:06;;;;;;;2.80;1.40;;;;;;;;;;5021350;28;20288;-65
2022/04/02 13:37:42;;;;;;;3.38;2.20;;;;;;;;;;5008273;28;20057;-66
2022/04/02 13:40:12;;;;;;;5.20;1.70;;;;;;;;;;5022340;28;20053;-65
2022/04/02 13:42:45;;;;;;;3.00;1.90;;;;;;;;;;5016371;28;20061;-65
2022/04/02 13:45:11;;;;;;;3.65;1.67;;;;;;;;;;5023374;28;20088;-65
2022/04/02 13:47:39;;;;;;;3.10;1.40;;;;;;;;;;5018739;28;20053;-65
2022/04/02 13:50:08;;;;;;;2.95;1.80;;;;;;;;;;5011202;28;20045;-65
2022/04/02 13:52:36;;;;;;;3.88;1.77;;;;;;;;;;5029069;28;20045;-66
2022/04/02 13:55:11;;;;;;;4.35;1.85;;;;;;;;;;5013325;28;20049;-65
2022/04/02 13:57:38;;;;;;;2.97;1.73;;;;;;;;;;5034793;28;20053;-65
2022/04/02 14:00:06;;;;;;;2.88;1.48;;;;;;;;;;5024553;28;20596;-65
2022/04/02 14:02:34;;;;;;;3.42;1.67;;;;;;;;;;5027020;28;20053;-65
2022/04/02 14:05:09;;;;;;;2.97;1.73;;;;;;;;;;5048383;28;20053;-67
2022/04/02 14:07:43;;;;;;;2.33;1.33;;;;;;;;;;5026363;28;20233;-66
2022/04/02 14:10:12;;;;;;;2.42;1.52;;;;;;;;;;5026697;28;20063;-66
2022/04/02 14:12:41;;;;;;;4.30;1.90;;;;;;;;;;5027267;28;20893;-65
2022/04/02 14:15:07;;;;;;;2.78;1.40;;;;;;;;;;5033668;28;20520;-65
2022/04/02 14:17:38;;;;;;;4.20;1.40;;;;;;;;;;5015700;28;20044;-65
2022/04/02 14:20:09;;;;;;;2.60;1.50;;;;;;;;;;5036360;28;20075;-65
2022/04/02 14:22:48;;;;;;;5.15;1.50;;;;;;;;;;5027819;28;20130;-65
2022/04/02 14:25:33;;;;;;;2.67;1.45;;;;;;;;;;5030046;28;20053;-65
2022/04/02 14:28:02;;;;;;;3.08;1.20;;;;;;;;;;5024321;28;20413;-67
2022/04/02 14:30:31;;;;;;;2.63;1.70;;;;;;;;;;5023599;28;20140;-66
2022/04/02 14:33:17;;;;;;;5.63;1.70;;;;;;;;;;5040008;28;20506;-67
2022/04/02 14:35:54;;;;;;;4.45;1.98;;;;;;;;;;5015625;28;20045;-66
2022/04/02 14:38:38;;;;;;;1.80;1.20;;;;;;;;;;5029109;28;20041;-66
2022/04/02 14:41:18;;;;;;;9.20;1.50;;;;;;;;;;5020096;28;20041;-67
2022/04/02 14:44:03;;;;;;;2.25;1.50;;;;;;;;;;5030985;28;20053;-65
2022/04/02 14:46:53;;;;;;;3.40;1.63;;;;;;;;;;5014089;28;20507;-66
2022/04/02 14:49:20;;;;;;;4.97;1.30;;;;;;;;;;5018407;28;20050;-67
2022/04/02 14:52:02;;;;;;;3.58;1.35;;;;;;;;;;5021787;28;20056;-66
2022/04/02 14:54:31;;;;;;;2.63;1.40;;;;;;;;;;5035357;28;20399;-66
2022/04/02 14:57:16;;;;;;;2.47;1.42;;;;;;;;;;5016125;28;20781;-66
2022/04/02 15:00:02;;;;;;;3.33;1.40;;;;;;;;;;5013857;28;20052;-66
2022/04/02 15:02:47;;;;;;;1.85;1.20;;;;;;;;;;5027451;28;20069;-66
2022/04/02 15:05:32;;;;;;;2.40;1.10;;;;;;;;;;5012445;28;20049;-66
2022/04/02 15:08:11;;;;;;;2.60;1.20;;;;;;;;;;5019059;28;20061;-66
2022/04/02 15:10:47;;;;;;;2.95;1.25;;;;;;;;;;5009134;28;20156;-66